sensor_id;sensor_type;location;lat;lon;timestamp;temperature;humidity
14551;DHT22;7362;50.956;4.184;2022-10-19T00:00:36;12.50;99.90
14551;DHT22;7362;50.956;4.184;2022-10-19T00:03:03;12.50;99.90
14551;DHT22;7362;50.956;4.184;2022-10-19T00:05:46;12.60;99.90
14551;DHT22;7362;50.956;4.184;2022-10-19T00:11:51;12.50;99.90
14551;DHT22;7362;50.956;4.184;2022-10-19T00:18:02;12.50;99.90
14551;DHT22;7362;50.956;4.184;2022-10-19T00:21:06;12.30;99.90
14551;DHT22;7362;50.956;4.184;2022-10-19T00:23:39;12.40;99.90
14551;DHT22;7362;50.956;4.184;2022-10-19T00:26:05;12.30;99.90
14551;DHT22;7362;50.956;4.184;2022-10-19T00:28:36;12.30;99.90
14551;DHT22;7362;50.956;4.184;2022-10-19T00:31:10;12.10;99.90
14551;DHT22;7362;50.956;4.184;2022-10-19T00:33:41;12.20;99.90
14551;DHT22;7362;50.956;4.184;2022-10-19T00:36:29;12.50;99.90
14551;DHT22;7362;50.956;4.184;2022-10-19T00:39:02;12.30;99.90
14551;DHT22;7362;50.956;4.184;2022-10-19T00:41:31;12.20;99.90
14551;DHT22;7362;50.956;4.184;2022-10-19T00:44:55;12.30;99.90
14551;DHT22;7362;50.956;4.184;2022-10-19T00:46:56;12.30;99.90
14551;DHT22;7362;50.956;4.184;2022-10-19T00:49:36;12.20;99.90
14551;DHT22;7362;50.956;4.184;2022-10-19T00:52:09;12.10;99.90
14551;DHT22;7362;50.956;4.184;2022-10-19T00:54:38;12.10;99.90
14551;DHT22;7362;50.956;4.184;2022-10-19T00:57:09;12.10;99.90
14551;DHT22;7362;50.956;4.184;2022-10-19T00:59:36;12.30;99.90
14551;DHT22;7362;50.956;4.184;2022-10-19T01:02:34;12.80;99.90
14551;DHT22;7362;50.956;4.184;2022-10-19T01:05:21;12.10;99.90
14551;DHT22;7362;50.956;4.184;2022-10-19T01:08:10;12.10;99.90
14551;DHT22;7362;50.956;4.184;2022-10-19T01:10:51;12.10;99.90
14551;DHT22;7362;50.956;4.184;2022-10-19T01:16:46;12.10;99.90
14551;DHT22;7362;50.956;4.184;2022-10-19T01:31:41;11.90;99.90
14551;DHT22;7362;50.956;4.184;2022-10-19T01:34:39;11.90;99.90
14551;DHT22;7362;50.956;4.184;2022-10-19T01:39:57;11.70;99.90
14551;DHT22;7362;50.956;4.184;2022-10-19T01:42:30;11.60;99.90
14551;DHT22;7362;50.956;4.184;2022-10-19T01:45:03;11.70;99.90
14551;DHT22;7362;50.956;4.184;2022-10-19T01:47:40;11.60;99.90
14551;DHT22;7362;50.956;4.184;2022-10-19T01:53:19;11.60;99.90
14551;DHT22;7362;50.956;4.184;2022-10-19T01:56:07;12.10;99.90
14551;DHT22;7362;50.956;4.184;2022-10-19T01:58:49;11.60;99.90
14551;DHT22;7362;50.956;4.184;2022-10-19T02:01:29;11.50;99.90
14551;DHT22;7362;50.956;4.184;2022-10-19T02:03:59;11.50;99.90
14551;DHT22;7362;50.956;4.184;2022-10-19T02:06:25;11.40;99.90
14551;DHT22;7362;50.956;4.184;2022-10-19T02:08:53;11.10;99.90
14551;DHT22;7362;50.956;4.184;2022-10-19T02:11:25;11.40;99.90
14551;DHT22;7362;50.956;4.184;2022-10-19T02:14:06;11.40;99.90
14551;DHT22;7362;50.956;4.184;2022-10-19T02:16:58;11.30;99.90
14551;DHT22;7362;50.956;4.184;2022-10-19T02:19:31;10.80;99.90
14551;DHT22;7362;50.956;4.184;2022-10-19T02:22:26;11.40;99.90
14551;DHT22;7362;50.956;4.184;2022-10-19T02:24:54;11.50;99.90
14551;DHT22;7362;50.956;4.184;2022-10-19T02:27:21;11.40;99.90
14551;DHT22;7362;50.956;4.184;2022-10-19T02:29:48;11.40;99.90
14551;DHT22;7362;50.956;4.184;2022-10-19T02:32:15;11.40;99.90
14551;DHT22;7362;50.956;4.184;2022-10-19T02:34:41;11.40;99.90
14551;DHT22;7362;50.956;4.184;2022-10-19T02:37:08;11.40;99.90
14551;DHT22;7362;50.956;4.184;2022-10-19T02:39:37;11.40;99.90
14551;DHT22;7362;50.956;4.184;2022-10-19T02:48:51;11.30;99.90
14551;DHT22;7362;50.956;4.184;2022-10-19T02:54:41;11.30;99.90
14551;DHT22;7362;50.956;4.184;2022-10-19T02:57:21;11.20;99.90
14551;DHT22;7362;50.956;4.184;2022-10-19T02:59:51;11.10;99.90
14551;DHT22;7362;50.956;4.184;2022-10-19T03:02:18;11.20;99.90
14551;DHT22;7362;50.956;4.184;2022-10-19T03:04:46;11.10;99.90
14551;DHT22;7362;50.956;4.184;2022-10-19T03:07:20;11.10;99.90
14551;DHT22;7362;50.956;4.184;2022-10-19T03:13:08;11.10;99.90
14551;DHT22;7362;50.956;4.184;2022-10-19T03:15:37;11.00;99.90
14551;DHT22;7362;50.956;4.184;2022-10-19T03:18:05;11.00;99.90
14551;DHT22;7362;50.956;4.184;2022-10-19T03:20:37;10.70;99.90
14551;DHT22;7362;50.956;4.184;2022-10-19T03:23:03;10.80;99.90
14551;DHT22;7362;50.956;4.184;2022-10-19T03:25:29;10.70;99.90
14551;DHT22;7362;50.956;4.184;2022-10-19T03:28:10;10.80;99.90
14551;DHT22;7362;50.956;4.184;2022-10-19T03:31:27;10.70;99.90
14551;DHT22;7362;50.956;4.184;2022-10-19T03:34:02;10.60;99.90
14551;DHT22;7362;50.956;4.184;2022-10-19T03:36:36;10.60;99.90
14551;DHT22;7362;50.956;4.184;2022-10-19T03:39:10;10.60;99.90
14551;DHT22;7362;50.956;4.184;2022-10-19T03:41:56;10.60;99.90
14551;DHT22;7362;50.956;4.184;2022-10-19T03:47:50;10.50;99.90
14551;DHT22;7362;50.956;4.184;2022-10-19T03:53:43;10.50;99.90
14551;DHT22;7362;50.956;4.184;2022-10-19T03:56:27;10.50;99.90
14551;DHT22;7362;50.956;4.184;2022-10-19T03:58:56;10.90;99.90
14551;DHT22;7362;50.956;4.184;2022-10-19T04:01:27;10.50;99.90
14551;DHT22;7362;50.956;4.184;2022-10-19T04:03:59;10.40;99.90
14551;DHT22;7362;50.956;4.184;2022-10-19T04:06:37;10.40;99.90
14551;DHT22;7362;50.956;4.184;2022-10-19T04:09:05;10.50;99.90
14551;DHT22;7362;50.956;4.184;2022-10-19T04:11:35;10.50;99.90
14551;DHT22;7362;50.956;4.184;2022-10-19T04:14:04;10.50;99.90
14551;DHT22;7362;50.956;4.184;2022-10-19T04:16:33;10.40;99.90
14551;DHT22;7362;50.956;4.184;2022-10-19T04:19:03;10.70;99.90
14551;DHT22;7362;50.956;4.184;2022-10-19T04:21:37;10.50;99.90
14551;DHT22;7362;50.956;4.184;2022-10-19T04:24:12;10.50;99.90
14551;DHT22;7362;50.956;4.184;2022-10-19T04:26:52;10.50;99.90
14551;DHT22;7362;50.956;4.184;2022-10-19T04:29:27;10.50;99.90
14551;DHT22;7362;50.956;4.184;2022-10-19T04:31:53;10.40;99.90
14551;DHT22;7362;50.956;4.184;2022-10-19T04:34:19;10.40;99.90
14551;DHT22;7362;50.956;4.184;2022-10-19T04:36:45;10.50;99.90
14551;DHT22;7362;50.956;4.184;2022-10-19T04:42:41;10.30;99.90
14551;DHT22;7362;50.956;4.184;2022-10-19T04:45:09;10.30;99.90
14551;DHT22;7362;50.956;4.184;2022-10-19T04:47:34;10.40;99.90
14551;DHT22;7362;50.956;4.184;2022-10-19T04:50:03;10.40;99.90
14551;DHT22;7362;50.956;4.184;2022-10-19T04:52:30;10.30;99.90
14551;DHT22;7362;50.956;4.184;2022-10-19T04:54:56;10.30;99.90
14551;DHT22;7362;50.956;4.184;2022-10-19T04:57:25;10.20;99.90
14551;DHT22;7362;50.956;4.184;2022-10-19T04:59:52;10.40;99.90
14551;DHT22;7362;50.956;4.184;2022-10-19T05:02:20;10.30;99.90
14551;DHT22;7362;50.956;4.184;2022-10-19T05:12:38;10.20;99.90
14551;DHT22;7362;50.956;4.184;2022-10-19T05:18:29;10.10;99.90
14551;DHT22;7362;50.956;4.184;2022-10-19T05:21:16;10.20;99.90
14551;DHT22;7362;50.956;4.184;2022-10-19T05:24:01;10.20;99.90
14551;DHT22;7362;50.956;4.184;2022-10-19T05:26:32;10.20;99.90
14551;DHT22;7362;50.956;4.184;2022-10-19T05:29:01;10.20;99.90
14551;DHT22;7362;50.956;4.184;2022-10-19T05:31:49;10.30;99.90
14551;DHT22;7362;50.956;4.184;2022-10-19T05:34:22;10.20;99.90
14551;DHT22;7362;50.956;4.184;2022-10-19T05:37:08;10.20;99.90
14551;DHT22;7362;50.956;4.184;2022-10-19T05:39:48;10.20;99.90
14551;DHT22;7362;50.956;4.184;2022-10-19T05:42:17;10.10;99.90
14551;DHT22;7362;50.956;4.184;2022-10-19T05:44:44;10.00;99.90
14551;DHT22;7362;50.956;4.184;2022-10-19T05:47:15;9.90;99.90
14551;DHT22;7362;50.956;4.184;2022-10-19T05:49:41;9.80;99.90
14551;DHT22;7362;50.956;4.184;2022-10-19T05:52:07;9.80;99.90
14551;DHT22;7362;50.956;4.184;2022-10-19T05:54:33;9.80;99.90
14551;DHT22;7362;50.956;4.184;2022-10-19T05:57:00;9.80;99.90
14551;DHT22;7362;50.956;4.184;2022-10-19T05:59:46;9.90;99.90
14551;DHT22;7362;50.956;4.184;2022-10-19T06:02:17;9.90;99.90
14551;DHT22;7362;50.956;4.184;2022-10-19T06:04:43;10.70;99.90
14551;DHT22;7362;50.956;4.184;2022-10-19T06:07:11;9.90;99.90
14551;DHT22;7362;50.956;4.184;2022-10-19T06:09:50;10.00;99.90
14551;DHT22;7362;50.956;4.184;2022-10-19T06:12:18;9.90;99.90
14551;DHT22;7362;50.956;4.184;2022-10-19T06:14:52;10.00;99.90
14551;DHT22;7362;50.956;4.184;2022-10-19T06:17:27;9.90;99.90
14551;DHT22;7362;50.956;4.184;2022-10-19T06:19:55;10.00;99.90
14551;DHT22;7362;50.956;4.184;2022-10-19T06:22:22;9.90;99.90
14551;DHT22;7362;50.956;4.184;2022-10-19T06:24:49;9.90;99.90
14551;DHT22;7362;50.956;4.184;2022-10-19T06:27:18;9.90;99.90
14551;DHT22;7362;50.956;4.184;2022-10-19T06:29:44;9.90;99.90
14551;DHT22;7362;50.956;4.184;2022-10-19T06:32:14;10.00;99.90
14551;DHT22;7362;50.956;4.184;2022-10-19T06:34:46;9.80;99.90
14551;DHT22;7362;50.956;4.184;2022-10-19T06:37:32;10.00;99.90
14551;DHT22;7362;50.956;4.184;2022-10-19T06:40:04;10.00;99.90
14551;DHT22;7362;50.956;4.184;2022-10-19T06:42:34;9.90;99.90
14551;DHT22;7362;50.956;4.184;2022-10-19T06:45:11;10.00;99.90
14551;DHT22;7362;50.956;4.184;2022-10-19T06:47:36;10.00;99.90
14551;DHT22;7362;50.956;4.184;2022-10-19T06:52:48;9.90;99.90
14551;DHT22;7362;50.956;4.184;2022-10-19T06:55:16;10.00;99.90
14551;DHT22;7362;50.956;4.184;2022-10-19T06:58:06;10.00;99.90
14551;DHT22;7362;50.956;4.184;2022-10-19T07:01:17;10.00;99.90
14551;DHT22;7362;50.956;4.184;2022-10-19T07:03:50;9.90;99.90
14551;DHT22;7362;50.956;4.184;2022-10-19T07:06:17;10.00;99.90
14551;DHT22;7362;50.956;4.184;2022-10-19T07:08:48;10.00;99.90
14551;DHT22;7362;50.956;4.184;2022-10-19T07:11:24;10.00;99.90
14551;DHT22;7362;50.956;4.184;2022-10-19T07:14:12;9.90;99.90
14551;DHT22;7362;50.956;4.184;2022-10-19T07:16:38;9.90;99.90
14551;DHT22;7362;50.956;4.184;2022-10-19T07:19:11;9.90;99.90
14551;DHT22;7362;50.956;4.184;2022-10-19T07:21:40;9.90;99.90
14551;DHT22;7362;50.956;4.184;2022-10-19T07:24:09;10.00;99.90
14551;DHT22;7362;50.956;4.184;2022-10-19T07:26:35;10.00;99.90
14551;DHT22;7362;50.956;4.184;2022-10-19T07:29:08;10.00;99.90
14551;DHT22;7362;50.956;4.184;2022-10-19T07:31:43;10.10;99.90
14551;DHT22;7362;50.956;4.184;2022-10-19T07:34:14;10.10;99.90
14551;DHT22;7362;50.956;4.184;2022-10-19T07:36:44;10.20;99.90
14551;DHT22;7362;50.956;4.184;2022-10-19T07:39:12;10.30;99.90
14551;DHT22;7362;50.956;4.184;2022-10-19T07:41:46;10.30;99.90
14551;DHT22;7362;50.956;4.184;2022-10-19T07:44:14;10.40;99.90
14551;DHT22;7362;50.956;4.184;2022-10-19T07:46:48;10.50;99.90
14551;DHT22;7362;50.956;4.184;2022-10-19T07:49:16;10.50;99.90
14551;DHT22;7362;50.956;4.184;2022-10-19T07:51:47;10.60;99.90
14551;DHT22;7362;50.956;4.184;2022-10-19T07:54:21;10.80;99.90
14551;DHT22;7362;50.956;4.184;2022-10-19T07:56:48;10.80;99.90
14551;DHT22;7362;50.956;4.184;2022-10-19T07:59:14;10.90;99.90
14551;DHT22;7362;50.956;4.184;2022-10-19T08:01:42;10.90;99.90
14551;DHT22;7362;50.956;4.184;2022-10-19T08:04:09;10.90;99.90
14551;DHT22;7362;50.956;4.184;2022-10-19T08:06:35;10.90;99.90
14551;DHT22;7362;50.956;4.184;2022-10-19T08:09:02;11.00;99.90
14551;DHT22;7362;50.956;4.184;2022-10-19T08:11:31;11.10;99.90
14551;DHT22;7362;50.956;4.184;2022-10-19T08:13:58;11.20;99.90
14551;DHT22;7362;50.956;4.184;2022-10-19T08:16:38;11.10;99.90
14551;DHT22;7362;50.956;4.184;2022-10-19T08:19:14;11.30;99.90
14551;DHT22;7362;50.956;4.184;2022-10-19T08:21:43;11.60;99.90
14551;DHT22;7362;50.956;4.184;2022-10-19T08:24:13;11.50;99.90
14551;DHT22;7362;50.956;4.184;2022-10-19T08:26:52;11.60;99.90
14551;DHT22;7362;50.956;4.184;2022-10-19T08:29:44;11.60;99.90
14551;DHT22;7362;50.956;4.184;2022-10-19T08:32:20;11.80;99.90
14551;DHT22;7362;50.956;4.184;2022-10-19T08:34:52;11.90;99.90
14551;DHT22;7362;50.956;4.184;2022-10-19T08:37:26;12.00;99.90
14551;DHT22;7362;50.956;4.184;2022-10-19T08:39:52;12.10;99.90
14551;DHT22;7362;50.956;4.184;2022-10-19T08:42:27;12.10;99.90
14551;DHT22;7362;50.956;4.184;2022-10-19T08:50:48;12.30;99.90
14551;DHT22;7362;50.956;4.184;2022-10-19T08:56:48;12.40;99.90
14551;DHT22;7362;50.956;4.184;2022-10-19T09:05:59;12.40;99.90
14551;DHT22;7362;50.956;4.184;2022-10-19T09:09:09;12.40;99.90
14551;DHT22;7362;50.956;4.184;2022-10-19T09:12:03;12.50;99.90
14551;DHT22;7362;50.956;4.184;2022-10-19T09:15:12;12.70;99.90
14551;DHT22;7362;50.956;4.184;2022-10-19T09:17:56;12.60;99.90
14551;DHT22;7362;50.956;4.184;2022-10-19T09:20:40;12.70;99.90
14551;DHT22;7362;50.956;4.184;2022-10-19T09:26:29;12.70;99.90
14551;DHT22;7362;50.956;4.184;2022-10-19T09:29:02;12.80;99.90
14551;DHT22;7362;50.956;4.184;2022-10-19T09:31:39;12.80;99.90
14551;DHT22;7362;50.956;4.184;2022-10-19T09:34:29;12.90;99.90
14551;DHT22;7362;50.956;4.184;2022-10-19T09:36:59;13.00;99.90
14551;DHT22;7362;50.956;4.184;2022-10-19T09:43:05;13.10;99.90
14551;DHT22;7362;50.956;4.184;2022-10-19T09:49:43;13.20;99.90
14551;DHT22;7362;50.956;4.184;2022-10-19T09:55:58;13.30;99.90
14551;DHT22;7362;50.956;4.184;2022-10-19T10:01:58;13.60;99.90
14551;DHT22;7362;50.956;4.184;2022-10-19T10:04:34;13.70;99.90
14551;DHT22;7362;50.956;4.184;2022-10-19T10:07:20;13.80;99.90
14551;DHT22;7362;50.956;4.184;2022-10-19T10:09:56;13.90;99.90
14551;DHT22;7362;50.956;4.184;2022-10-19T10:12:45;13.90;99.90
14551;DHT22;7362;50.956;4.184;2022-10-19T10:15:47;14.00;99.90
14551;DHT22;7362;50.956;4.184;2022-10-19T10:22:11;14.10;99.90
14551;DHT22;7362;50.956;4.184;2022-10-19T10:25:15;14.10;99.90
14551;DHT22;7362;50.956;4.184;2022-10-19T10:28:37;14.30;99.90
14551;DHT22;7362;50.956;4.184;2022-10-19T10:31:22;14.30;99.90
14551;DHT22;7362;50.956;4.184;2022-10-19T10:34:16;14.40;99.90
14551;DHT22;7362;50.956;4.184;2022-10-19T10:36:49;14.50;99.90
14551;DHT22;7362;50.956;4.184;2022-10-19T10:47:01;14.80;99.90
14551;DHT22;7362;50.956;4.184;2022-10-19T10:49:33;14.80;99.90
14551;DHT22;7362;50.956;4.184;2022-10-19T10:52:04;14.90;99.90
14551;DHT22;7362;50.956;4.184;2022-10-19T10:54:38;15.00;99.90
14551;DHT22;7362;50.956;4.184;2022-10-19T10:57:11;15.00;99.90
14551;DHT22;7362;50.956;4.184;2022-10-19T10:59:55;15.10;99.90
14551;DHT22;7362;50.956;4.184;2022-10-19T11:02:59;15.20;99.90
14551;DHT22;7362;50.956;4.184;2022-10-19T11:05:35;15.30;99.90
14551;DHT22;7362;50.956;4.184;2022-10-19T11:11:37;15.40;99.90
14551;DHT22;7362;50.956;4.184;2022-10-19T11:14:35;15.40;99.90
14551;DHT22;7362;50.956;4.184;2022-10-19T11:17:05;15.50;99.90
14551;DHT22;7362;50.956;4.184;2022-10-19T11:19:50;15.60;99.90
14551;DHT22;7362;50.956;4.184;2022-10-19T11:22:56;15.80;99.90
14551;DHT22;7362;50.956;4.184;2022-10-19T11:31:47;16.10;99.90
14551;DHT22;7362;50.956;4.184;2022-10-19T11:34:37;16.00;99.90
14551;DHT22;7362;50.956;4.184;2022-10-19T11:37:31;16.30;99.90
14551;DHT22;7362;50.956;4.184;2022-10-19T11:43:35;16.30;99.90
14551;DHT22;7362;50.956;4.184;2022-10-19T11:49:06;16.50;99.90
14551;DHT22;7362;50.956;4.184;2022-10-19T11:57:36;16.60;99.90
14551;DHT22;7362;50.956;4.184;2022-10-19T12:00:15;16.70;99.90
14551;DHT22;7362;50.956;4.184;2022-10-19T12:03:21;16.70;99.90
14551;DHT22;7362;50.956;4.184;2022-10-19T12:14:43;17.40;99.90
14551;DHT22;7362;50.956;4.184;2022-10-19T12:17:22;17.50;99.90
14551;DHT22;7362;50.956;4.184;2022-10-19T12:19:54;17.50;99.90
14551;DHT22;7362;50.956;4.184;2022-10-19T12:22:25;17.30;99.90
14551;DHT22;7362;50.956;4.184;2022-10-19T12:24:54;17.30;99.90
14551;DHT22;7362;50.956;4.184;2022-10-19T12:27:34;17.40;99.90
14551;DHT22;7362;50.956;4.184;2022-10-19T12:30:11;17.50;99.90
14551;DHT22;7362;50.956;4.184;2022-10-19T12:33:03;17.60;99.90
14551;DHT22;7362;50.956;4.184;2022-10-19T12:35:58;17.80;99.90
14551;DHT22;7362;50.956;4.184;2022-10-19T12:38:32;17.70;99.90
14551;DHT22;7362;50.956;4.184;2022-10-19T12:41:18;17.70;99.90
14551;DHT22;7362;50.956;4.184;2022-10-19T12:46:47;17.70;99.90
14551;DHT22;7362;50.956;4.184;2022-10-19T12:52:05;17.70;99.90
14551;DHT22;7362;50.956;4.184;2022-10-19T12:54:40;17.60;99.90
14551;DHT22;7362;50.956;4.184;2022-10-19T12:57:31;17.50;99.90
14551;DHT22;7362;50.956;4.184;2022-10-19T13:02:40;17.40;99.90
14551;DHT22;7362;50.956;4.184;2022-10-19T13:05:17;17.40;99.90
14551;DHT22;7362;50.956;4.184;2022-10-19T13:07:50;17.20;99.90
14551;DHT22;7362;50.956;4.184;2022-10-19T13:10:30;17.20;99.90
14551;DHT22;7362;50.956;4.184;2022-10-19T13:12:58;17.20;99.90
14551;DHT22;7362;50.956;4.184;2022-10-19T13:21:50;17.30;99.90
14551;DHT22;7362;50.956;4.184;2022-10-19T13:29:41;17.40;99.90
14551;DHT22;7362;50.956;4.184;2022-10-19T13:35:36;17.40;99.90
14551;DHT22;7362;50.956;4.184;2022-10-19T13:43:38;17.70;99.90
14551;DHT22;7362;50.956;4.184;2022-10-19T13:49:42;18.20;99.90
14551;DHT22;7362;50.956;4.184;2022-10-19T14:04:40;19.90;99.90
14551;DHT22;7362;50.956;4.184;2022-10-19T14:07:38;20.00;99.90
14551;DHT22;7362;50.956;4.184;2022-10-19T14:10:22;19.80;99.90
14551;DHT22;7362;50.956;4.184;2022-10-19T14:12:50;19.40;99.90
14551;DHT22;7362;50.956;4.184;2022-10-19T14:18:40;19.10;99.90
14551;DHT22;7362;50.956;4.184;2022-10-19T14:21:08;19.00;99.90
14551;DHT22;7362;50.956;4.184;2022-10-19T14:23:36;18.90;99.90
14551;DHT22;7362;50.956;4.184;2022-10-19T14:26:35;18.80;99.90
14551;DHT22;7362;50.956;4.184;2022-10-19T14:29:10;18.90;99.90
14551;DHT22;7362;50.956;4.184;2022-10-19T14:31:55;19.10;99.90
14551;DHT22;7362;50.956;4.184;2022-10-19T14:34:32;19.40;99.90
14551;DHT22;7362;50.956;4.184;2022-10-19T14:36:59;19.20;99.90
14551;DHT22;7362;50.956;4.184;2022-10-19T14:39:32;18.80;99.90
14551;DHT22;7362;50.956;4.184;2022-10-19T14:42:10;18.90;99.90
14551;DHT22;7362;50.956;4.184;2022-10-19T14:44:42;18.90;99.90
14551;DHT22;7362;50.956;4.184;2022-10-19T14:47:32;18.60;99.90
14551;DHT22;7362;50.956;4.184;2022-10-19T14:50:02;18.60;99.90
14551;DHT22;7362;50.956;4.184;2022-10-19T14:52:35;18.50;99.90
14551;DHT22;7362;50.956;4.184;2022-10-19T14:55:10;18.40;99.90
14551;DHT22;7362;50.956;4.184;2022-10-19T14:57:50;18.20;99.90
14551;DHT22;7362;50.956;4.184;2022-10-19T15:00:32;18.00;99.90
14551;DHT22;7362;50.956;4.184;2022-10-19T15:03:14;17.90;99.90
14551;DHT22;7362;50.956;4.184;2022-10-19T15:05:57;17.70;99.90
14551;DHT22;7362;50.956;4.184;2022-10-19T15:08:41;17.60;99.90
14551;DHT22;7362;50.956;4.184;2022-10-19T15:14:16;17.40;99.90
14551;DHT22;7362;50.956;4.184;2022-10-19T15:17:04;17.30;99.90
14551;DHT22;7362;50.956;4.184;2022-10-19T15:19:45;17.30;99.90
14551;DHT22;7362;50.956;4.184;2022-10-19T15:34:25;16.80;99.90
14551;DHT22;7362;50.956;4.184;2022-10-19T15:36:58;16.70;99.90
14551;DHT22;7362;50.956;4.184;2022-10-19T15:39:31;16.70;99.90
14551;DHT22;7362;50.956;4.184;2022-10-19T15:42:36;16.60;99.90
14551;DHT22;7362;50.956;4.184;2022-10-19T15:52:21;16.40;99.90
14551;DHT22;7362;50.956;4.184;2022-10-19T15:54:53;16.40;99.90
14551;DHT22;7362;50.956;4.184;2022-10-19T15:57:33;16.30;99.90
14551;DHT22;7362;50.956;4.184;2022-10-19T16:00:17;16.20;99.90
14551;DHT22;7362;50.956;4.184;2022-10-19T16:02:45;16.20;99.90
14551;DHT22;7362;50.956;4.184;2022-10-19T16:05:18;16.30;99.90
14551;DHT22;7362;50.956;4.184;2022-10-19T16:07:52;16.10;99.90
14551;DHT22;7362;50.956;4.184;2022-10-19T16:10:22;16.20;99.90
14551;DHT22;7362;50.956;4.184;2022-10-19T16:12:51;16.20;99.90
14551;DHT22;7362;50.956;4.184;2022-10-19T16:15:21;16.10;99.90
14551;DHT22;7362;50.956;4.184;2022-10-19T16:17:53;16.20;99.90
14551;DHT22;7362;50.956;4.184;2022-10-19T16:20:32;16.20;99.90
14551;DHT22;7362;50.956;4.184;2022-10-19T16:23:04;16.00;99.90
14551;DHT22;7362;50.956;4.184;2022-10-19T16:25:33;16.00;99.90
14551;DHT22;7362;50.956;4.184;2022-10-19T16:28:16;15.90;99.90
14551;DHT22;7362;50.956;4.184;2022-10-19T16:30:55;15.90;99.90
14551;DHT22;7362;50.956;4.184;2022-10-19T16:33:24;15.90;99.90
14551;DHT22;7362;50.956;4.184;2022-10-19T16:35:54;15.80;99.90
14551;DHT22;7362;50.956;4.184;2022-10-19T16:38:24;15.60;99.90
14551;DHT22;7362;50.956;4.184;2022-10-19T16:40:56;15.60;99.90
14551;DHT22;7362;50.956;4.184;2022-10-19T16:43:25;15.50;99.90
14551;DHT22;7362;50.956;4.184;2022-10-19T16:46:04;15.50;99.90
14551;DHT22;7362;50.956;4.184;2022-10-19T16:48:59;15.50;99.90
14551;DHT22;7362;50.956;4.184;2022-10-19T16:51:48;15.40;99.90
14551;DHT22;7362;50.956;4.184;2022-10-19T16:54:29;15.40;99.90
14551;DHT22;7362;50.956;4.184;2022-10-19T16:56:58;15.40;99.90
14551;DHT22;7362;50.956;4.184;2022-10-19T16:59:38;15.40;99.90
14551;DHT22;7362;50.956;4.184;2022-10-19T17:02:18;15.30;99.90
14551;DHT22;7362;50.956;4.184;2022-10-19T17:04:50;15.30;99.90
14551;DHT22;7362;50.956;4.184;2022-10-19T17:07:21;15.20;99.90
14551;DHT22;7362;50.956;4.184;2022-10-19T17:10:07;15.20;99.90
14551;DHT22;7362;50.956;4.184;2022-10-19T17:13:03;15.20;99.90
14551;DHT22;7362;50.956;4.184;2022-10-19T17:18:25;15.00;99.90
14551;DHT22;7362;50.956;4.184;2022-10-19T17:21:19;15.00;99.90
14551;DHT22;7362;50.956;4.184;2022-10-19T17:23:53;14.90;99.90
14551;DHT22;7362;50.956;4.184;2022-10-19T17:26:30;14.60;99.90
14551;DHT22;7362;50.956;4.184;2022-10-19T17:29:00;14.90;99.90
14551;DHT22;7362;50.956;4.184;2022-10-19T17:31:30;14.90;99.90
14551;DHT22;7362;50.956;4.184;2022-10-19T17:33:58;14.80;99.90
14551;DHT22;7362;50.956;4.184;2022-10-19T17:36:35;14.80;99.90
14551;DHT22;7362;50.956;4.184;2022-10-19T17:39:04;14.70;99.90
14551;DHT22;7362;50.956;4.184;2022-10-19T17:41:34;14.70;99.90
14551;DHT22;7362;50.956;4.184;2022-10-19T17:47:16;14.60;99.90
14551;DHT22;7362;50.956;4.184;2022-10-19T17:49:48;14.60;99.90
14551;DHT22;7362;50.956;4.184;2022-10-19T17:52:18;14.50;99.90
14551;DHT22;7362;50.956;4.184;2022-10-19T17:55:10;14.60;99.90
14551;DHT22;7362;50.956;4.184;2022-10-19T17:57:42;14.60;99.90
14551;DHT22;7362;50.956;4.184;2022-10-19T18:00:54;14.50;99.90
14551;DHT22;7362;50.956;4.184;2022-10-19T18:03:57;14.40;99.90
14551;DHT22;7362;50.956;4.184;2022-10-19T18:06:35;14.40;99.90
14551;DHT22;7362;50.956;4.184;2022-10-19T18:12:33;14.40;99.90
14551;DHT22;7362;50.956;4.184;2022-10-19T18:15:19;14.20;99.90
14551;DHT22;7362;50.956;4.184;2022-10-19T18:20:30;14.40;99.90
14551;DHT22;7362;50.956;4.184;2022-10-19T18:22:59;14.30;99.90
14551;DHT22;7362;50.956;4.184;2022-10-19T18:25:25;14.30;99.90
14551;DHT22;7362;50.956;4.184;2022-10-19T18:28:01;14.40;99.90
14551;DHT22;7362;50.956;4.184;2022-10-19T18:30:37;14.30;99.90
14551;DHT22;7362;50.956;4.184;2022-10-19T18:33:04;14.30;99.90
14551;DHT22;7362;50.956;4.184;2022-10-19T18:35:45;14.30;99.90
14551;DHT22;7362;50.956;4.184;2022-10-19T18:38:12;14.30;99.90
14551;DHT22;7362;50.956;4.184;2022-10-19T18:40:40;14.20;99.90
14551;DHT22;7362;50.956;4.184;2022-10-19T18:43:07;14.20;99.90
14551;DHT22;7362;50.956;4.184;2022-10-19T18:45:53;14.20;99.90
14551;DHT22;7362;50.956;4.184;2022-10-19T18:48:43;14.20;99.90
14551;DHT22;7362;50.956;4.184;2022-10-19T18:51:15;14.10;99.90
14551;DHT22;7362;50.956;4.184;2022-10-19T18:53:45;14.10;99.90
14551;DHT22;7362;50.956;4.184;2022-10-19T18:56:19;14.00;99.90
14551;DHT22;7362;50.956;4.184;2022-10-19T18:58:50;14.00;99.90
14551;DHT22;7362;50.956;4.184;2022-10-19T19:01:20;14.00;99.90
14551;DHT22;7362;50.956;4.184;2022-10-19T19:04:03;14.00;99.90
14551;DHT22;7362;50.956;4.184;2022-10-19T19:06:33;14.00;99.90
14551;DHT22;7362;50.956;4.184;2022-10-19T19:09:06;14.10;99.90
14551;DHT22;7362;50.956;4.184;2022-10-19T19:11:35;14.00;99.90
14551;DHT22;7362;50.956;4.184;2022-10-19T19:14:14;14.10;99.90
14551;DHT22;7362;50.956;4.184;2022-10-19T19:16:46;14.00;99.90
14551;DHT22;7362;50.956;4.184;2022-10-19T19:19:21;14.00;99.90
14551;DHT22;7362;50.956;4.184;2022-10-19T19:21:52;14.10;99.90
14551;DHT22;7362;50.956;4.184;2022-10-19T19:24:23;14.10;99.90
14551;DHT22;7362;50.956;4.184;2022-10-19T19:27:06;14.10;99.90
14551;DHT22;7362;50.956;4.184;2022-10-19T19:29:40;14.10;99.90
14551;DHT22;7362;50.956;4.184;2022-10-19T19:32:28;14.00;99.90
14551;DHT22;7362;50.956;4.184;2022-10-19T19:35:05;14.00;99.90
14551;DHT22;7362;50.956;4.184;2022-10-19T19:37:52;14.00;99.90
14551;DHT22;7362;50.956;4.184;2022-10-19T19:40:19;14.00;99.90
14551;DHT22;7362;50.956;4.184;2022-10-19T19:42:49;14.00;99.90
14551;DHT22;7362;50.956;4.184;2022-10-19T19:45:17;13.90;99.90
14551;DHT22;7362;50.956;4.184;2022-10-19T19:48:08;13.90;99.90
14551;DHT22;7362;50.956;4.184;2022-10-19T19:50:36;13.80;99.90
14551;DHT22;7362;50.956;4.184;2022-10-19T19:53:13;13.80;99.90
14551;DHT22;7362;50.956;4.184;2022-10-19T19:55:54;13.80;99.90
14551;DHT22;7362;50.956;4.184;2022-10-19T19:59:01;13.80;99.90
14551;DHT22;7362;50.956;4.184;2022-10-19T20:01:36;13.80;99.90
14551;DHT22;7362;50.956;4.184;2022-10-19T20:04:16;13.70;99.90
14551;DHT22;7362;50.956;4.184;2022-10-19T20:06:46;13.70;99.90
14551;DHT22;7362;50.956;4.184;2022-10-19T20:09:24;13.70;99.90
14551;DHT22;7362;50.956;4.184;2022-10-19T20:12:00;13.70;99.90
14551;DHT22;7362;50.956;4.184;2022-10-19T20:14:37;13.60;99.90
14551;DHT22;7362;50.956;4.184;2022-10-19T20:22:37;13.70;99.90
14551;DHT22;7362;50.956;4.184;2022-10-19T20:25:27;13.70;99.90
14551;DHT22;7362;50.956;4.184;2022-10-19T20:28:16;13.60;99.90
14551;DHT22;7362;50.956;4.184;2022-10-19T20:34:14;13.60;99.90
14551;DHT22;7362;50.956;4.184;2022-10-19T20:37:00;13.70;99.90